Latest Weather Observations for Gladstone Airport

IDQ60801

Issued at 10:02 pm EST Thursday 5 March 2015 (issued every 30 minutes, with the page automatically refreshed every 10 minutes)

About weather observations | Map of weather stations | Latest weather observations for QLD | Other Formats
Station Details ID: 039326 Name: GLADSTONE AIRPORT Lat: -23.87 Lon: 151.22 Height: 16.6 m
Data from the previous 72 hours. | See also: Recent months at Gladstone Airport
Date/Time
EST
Temp
°C
App
Temp
°C
Dew
Point
Rel
Hum
%
Delta-T
°C
Wind Press
QNH
hPa
Press
MSL
hPa
Rain
since 9 am
mm
Dir
 
Spd
km/h
Gust
km/h
Spd
kts
Gust
kts
05/10:00pm 27.2 30.6 23.4 80 2.6 NNW 11 15 6 8 1006.1 1006.0 0.0
05/09:30pm 27.5 30.9 23.3 78 2.9 NNW 11 17 6 9 1006.2 1006.1 0.0
05/09:00pm 27.6 31.0 23.4 78 2.9 N 11 15 6 8 1006.2 1006.1 0.0
05/08:30pm 27.8 31.5 23.2 76 3.1 N 9 13 5 7 1006.1 1006.0 0.0
05/08:00pm 28.0 30.7 22.9 74 3.5 N 13 19 7 10 1006.1 1006.0 0.0
05/07:30pm 28.6 31.6 23.3 73 3.6 NNW 13 20 7 11 1005.9 1005.8 0.0
05/07:00pm 29.2 31.4 23.2 70 4.1 NNW 17 24 9 13 1005.7 1005.6 0.0
05/06:30pm 29.9 32.4 23.1 67 4.7 N 15 22 8 12 1005.5 1005.4 0.0
05/06:00pm 30.6 33.4 23.0 64 5.2 N 13 22 7 12 1005.6 1005.5 0.0
05/05:30pm 30.8 33.0 23.2 64 5.2 NE 17 20 9 11 1005.5 1005.4 0.0
05/05:00pm 31.2 33.4 23.3 63 5.5 ENE 17 22 9 12 1005.5 1005.4 0.0
05/04:30pm 31.3 32.9 22.9 61 5.8 NE 19 22 10 12 1005.5 1005.4 0.0
05/04:00pm 31.8 33.4 22.8 59 6.2 NE 19 24 10 13 1005.6 1005.5 0.0
05/03:30pm 32.5 34.3 22.6 56 6.8 NE 17 24 9 13 1005.8 1005.7 0.0
05/03:00pm 32.2 33.6 22.6 57 6.6 NE 19 24 10 13 1006.0 1005.9 0.0
05/02:30pm 32.4 33.4 22.2 55 7.0 NE 20 26 11 14 1006.1 1006.0 0.0
05/02:00pm 32.3 35.1 23.0 58 6.4 NNE 13 20 7 11 1006.6 1006.5 0.0
05/01:30pm 32.0 34.1 22.4 57 6.6 NNE 15 22 8 12 1007.2 1007.1 0.0
05/01:00pm 31.2 33.3 21.7 57 6.4 NNE 13 22 7 12 1008.0 1007.9 0.0
05/12:30pm 32.4 34.3 21.3 52 7.5 NNW 13 19 7 10 1008.5 1008.4 0.0
05/12:00pm 31.6 33.5 21.4 54 6.9 NNW 13 20 7 11 1009.0 1008.9 0.0
05/11:30am 31.3 33.1 21.2 55 6.8 NNW 13 20 7 11 1009.5 1009.4 0.0
05/11:00am 30.8 33.3 21.0 56 6.6 N 9 20 5 11 1009.9 1009.8 0.0
05/10:30am 30.4 32.9 21.8 60 5.8 NNW 11 17 6 9 1010.4 1010.3 0.0
05/10:00am 29.6 31.9 21.3 61 5.6 N 11 17 6 9 1010.7 1010.6 0.0
05/09:30am 28.8 32.2 21.6 65 4.8 WNW 6 9 3 5 1010.9 1010.8 0.0
05/09:00am 28.2 31.4 22.4 71 3.9 NNW 9 15 5 8 1010.9 1010.8 0.0
05/08:30am 27.2 30.5 22.6 76 3.1 NNW 9 13 5 7 1010.9 1010.8 0.0
05/08:00am 24.9 27.9 22.0 84 1.9 SW 9 13 5 7 1010.9 1010.8 0.0
05/07:32am 23.6 26.7 22.2 92 0.9 SW 9 13 5 7 1010.8 1010.7 0.0
05/07:30am 23.6 27.2 22.4 93 0.8 SW 7 13 4 7 1010.7 1010.6 0.0
05/07:23am 23.4 27.0 22.4 94 0.7 SSW 7 11 4 6 1010.7 1010.6 0.0
05/07:00am 22.6 25.5 21.8 95 0.5 SSW 9 11 5 6 1010.6 1010.5 0.0
05/06:30am 22.3 25.1 21.5 95 0.5 SSW 9 13 5 7 1010.4 1010.3 0.0
05/06:00am 22.3 24.7 21.5 95 0.5 SSW 11 15 6 8 1010.2 1010.1 0.0
05/05:30am 22.3 24.6 21.3 94 0.7 SSW 11 17 6 9 1009.9 1009.8 0.0
05/05:00am 22.5 25.3 21.5 94 0.7 SSW 9 13 5 7 1009.9 1009.8 0.0
05/04:42am 22.7 25.5 21.5 93 0.8 SSW 9 11 5 6 1009.8 1009.7 0.0
05/04:36am 22.7 25.5 21.5 93 0.8 SSW 9 13 5 7 1009.8 1009.7 0.0
05/04:30am 22.7 25.5 21.5 93 0.8 SSW 9 13 5 7 1009.8 1009.7 0.0
05/04:00am 22.7 25.4 21.3 92 0.9 SW 9 13 5 7 1009.8 1009.7 0.0
05/03:30am 22.8 25.5 21.3 91 1.0 SSW 9 13 5 7 1009.9 1009.8 0.0
05/03:00am 23.0 25.7 21.3 90 1.1 SW 9 13 5 7 1010.0 1009.9 0.0
05/02:30am 23.3 26.1 21.6 90 1.1 SSW 9 11 5 6 1010.3 1010.2 0.0
05/02:00am 23.7 26.9 21.6 88 1.4 SSW 7 11 4 6 1010.6 1010.5 0.0
05/01:53am 23.8 27.0 21.7 88 1.4 SSW 7 11 4 6 1010.7 1010.6 0.0
05/01:30am 23.9 27.2 21.8 88 1.4 SW 7 9 4 5 1011.0 1010.9 0.0
05/01:00am 23.8 27.0 21.7 88 1.4 SW 7 9 4 5 1011.2 1011.1 0.0
05/12:30am 24.2 27.5 21.9 87 1.5 SW 7 9 4 5 1011.6 1011.5 0.0
05/12:00am 24.2 27.2 21.9 87 1.5 SW 9 11 5 6 1012.0 1011.9 0.0
 
Date/Time
EST
Temp
°C
App
Temp
°C
Dew
Point
Rel
Hum
%
Delta-T
°C
Wind Press
QNH
hPa
Press
MSL
hPa
Rain
since 9 am
mm
Dir
 
Spd
km/h
Gust
km/h
Spd
kts
Gust
kts
04/11:30pm 24.2 27.1 21.7 86 1.7 SW 9 9 5 5 1012.3 1012.2 0.0
04/11:00pm 24.9 28.3 22.0 84 1.9 SW 7 9 4 5 1012.4 1012.3 0.0
04/10:30pm 25.4 28.9 21.9 81 2.3 E 6 7 3 4 1012.6 1012.5 0.0
04/10:00pm 26.1 29.9 22.4 80 2.5 ESE 6 7 3 4 1012.5 1012.4 0.0
04/09:30pm 26.3 29.5 22.4 79 2.6 E 9 11 5 6 1012.5 1012.4 0.0
04/09:00pm 26.4 29.6 22.3 78 2.8 ENE 9 11 5 6 1012.6 1012.5 0.0
04/08:30pm 26.5 29.5 21.9 76 3.1 ENE 9 13 5 7 1012.5 1012.4 0.0
04/08:00pm 26.5 29.5 21.9 76 3.1 E 9 11 5 6 1012.2 1012.1 0.0
04/07:30pm 26.7 29.6 21.7 74 3.3 ENE 9 15 5 8 1011.9 1011.8 0.0
04/07:00pm 26.9 29.3 21.6 72 3.5 ENE 11 13 6 7 1011.6 1011.5 0.0
04/06:30pm 27.1 28.7 21.4 71 3.8 ENE 15 19 8 10 1011.3 1011.2 0.0
04/06:00pm 27.4 28.6 21.4 70 4.0 NE 17 22 9 12 1011.3 1011.2 0.0
04/05:30pm 27.9 28.7 21.4 67 4.3 E 19 24 10 13 1011.0 1010.9 0.0
04/05:00pm 28.4 29.5 21.2 65 4.8 ENE 17 19 9 10 1010.8 1010.7 0.0
04/04:30pm 28.8 29.9 21.3 64 5.0 ENE 17 24 9 13 1011.1 1011.0 0.0
04/04:00pm 28.6 29.5 20.9 63 5.1 ENE 17 22 9 12 1011.0 1010.9 0.0
04/03:30pm 29.3 30.1 21.3 62 5.3 ENE 19 26 10 14 1010.9 1010.8 0.0
04/03:00pm 30.2 31.0 20.7 56 6.3 ENE 17 24 9 13 1011.0 1010.9 0.0
04/02:30pm 30.3 31.0 20.5 55 6.5 ENE 17 24 9 13 1011.3 1011.2 0.0
04/02:00pm 29.8 29.8 19.8 55 6.6 NE 19 26 10 14 1011.6 1011.5 0.0
04/01:30pm 30.7 30.8 20.0 52 7.1 ENE 19 24 10 13 1011.9 1011.8 0.0
04/01:00pm 29.8 29.5 19.5 54 6.7 ENE 20 26 11 14 1012.4 1012.3 0.0
04/12:30pm 30.2 30.9 19.6 53 6.9 E 15 20 8 11 1012.7 1012.6 0.0
04/12:00pm 29.7 30.3 19.4 54 6.7 E 15 24 8 13 1012.8 1012.7 0.0
04/11:30am 29.7 29.4 18.2 50 7.4 ESE 17 24 9 13 1013.1 1013.0 0.0
04/11:00am 30.2 30.9 19.6 53 6.9 ESE 15 20 8 11 1013.3 1013.2 0.0
04/10:30am 29.4 28.6 18.5 52 7.0 E 20 28 11 15 1013.5 1013.4 0.0
04/10:00am 28.5 28.0 19.1 56 6.1 ESE 20 28 11 15 1013.8 1013.7 0.0
04/09:30am 28.5 28.1 19.4 57 5.9 ESE 20 30 11 16 1013.9 1013.8 0.0
04/09:00am 27.4 28.0 19.5 62 5.1 SSE 15 22 8 12 1013.8 1013.7 0.0
04/08:30am 26.7 27.8 20.5 69 4.1 SE 15 22 8 12 1013.8 1013.7 0.0
04/08:00am 25.9 26.9 20.2 71 3.7 SSE 15 22 8 12 1013.5 1013.4 0.0
04/07:30am 24.6 26.5 19.7 74 3.2 S 9 13 5 7 1013.3 1013.2 0.0
04/07:00am 23.0 24.7 19.4 80 2.3 SW 9 11 5 6 1013.3 1013.2 0.0
04/06:30am 22.0 23.6 19.2 84 1.8 SW 9 11 5 6 1013.0 1012.9 0.0
04/06:00am 22.4 24.5 19.4 83 1.9 S 7 9 4 5 1012.8 1012.7 0.0
04/05:30am 22.6 24.3 19.4 82 2.0 S 9 13 5 7 1012.5 1012.4 0.0
04/05:00am 22.7 24.7 19.1 80 2.3 SSW 7 9 4 5 1012.4 1012.3 0.0
04/04:30am 23.6 25.0 19.5 78 2.6 SSE 11 17 6 9 1012.2 1012.1 0.0
04/04:00am 23.7 25.0 19.4 77 2.8 SSE 11 17 6 9 1012.1 1012.0 0.0
04/03:30am 23.6 25.0 19.5 78 2.6 S 11 17 6 9 1012.1 1012.0 0.0
04/03:00am 23.5 25.2 19.4 78 2.6 S 9 11 5 6 1012.3 1012.2 0.0
04/02:30am 23.9 25.6 19.4 76 2.9 SSE 9 15 5 8 1012.5 1012.4 0.0
04/02:00am 24.1 25.9 19.6 76 2.9 SSE 9 17 5 9 1012.8 1012.7 0.0
04/01:30am 24.2 26.0 19.5 75 3.0 S 9 13 5 7 1013.2 1013.1 0.0
04/01:00am 24.6 26.5 19.7 74 3.2 S 9 15 5 8 1013.6 1013.5 0.0
04/12:30am 24.7 26.6 19.8 74 3.2 S 9 11 5 6 1013.7 1013.6 0.0
04/12:00am 25.1 27.0 19.7 72 3.5 SSE 9 15 5 8 1013.9 1013.8 0.0
 
Date/Time
EST
Temp
°C
App
Temp
°C
Dew
Point
Rel
Hum
%
Delta-T
°C
Wind Press
QNH
hPa
Press
MSL
hPa
Rain
since 9 am
mm
Dir
 
Spd
km/h
Gust
km/h
Spd
kts
Gust
kts
03/11:30pm 25.3 27.4 20.1 73 3.4 SSE 9 15 5 8 1014.1 1014.0 0.0
03/11:00pm 25.5 27.6 20.1 72 3.5 SSE 9 15 5 8 1014.2 1014.1 0.0
03/10:30pm 25.9 27.1 20.0 70 3.8 SE 13 20 7 11 1014.2 1014.1 0.0
03/10:00pm 26.4 27.4 20.3 69 4.0 SE 15 24 8 13 1014.0 1013.9 0.0
03/09:30pm 26.6 27.7 20.4 69 4.1 SE 15 20 8 11 1014.1 1014.0 0.0
03/09:00pm 26.8 27.9 20.4 68 4.2 ESE 15 24 8 13 1013.9 1013.8 0.0
03/08:30pm 27.0 26.2 20.1 66 4.5 ESE 24 30 13 16 1013.6 1013.5 0.0
03/08:00pm 27.1 25.8 19.9 64 4.7 ESE 26 33 14 18 1013.1 1013.0 0.0
03/07:30pm 27.2 25.7 20.3 66 4.5 ESE 28 35 15 19 1012.7 1012.6 0.0
03/07:00pm 27.2 26.1 20.3 66 4.5 E 26 32 14 17 1012.5 1012.4 0.0
03/06:30pm 27.4 26.9 20.7 67 4.4 E 24 32 13 17 1012.2 1012.1 0.0
03/06:00pm 27.8 26.2 20.1 63 5.0 E 28 39 15 21 1011.9 1011.8 0.0
03/05:30pm 28.4 26.5 20.1 60 5.4 E 30 35 16 19 1011.6 1011.5 0.0
03/05:00pm 28.9 27.6 19.8 58 6.0 ESE 26 35 14 19 1011.4 1011.3 0.0
03/04:30pm 29.4 28.3 20.3 58 6.0 E 26 37 14 20 1011.2 1011.1 0.0
03/04:00pm 29.6 28.5 20.2 57 6.2 E 26 35 14 19 1011.1 1011.0 0.0
03/03:30pm 30.4 27.8 19.4 51 7.2 E 32 37 17 20 1011.1 1011.0 0.0
03/03:00pm 31.4 31.3 20.7 53 7.1 E 22 32 12 17 1011.3 1011.2 0.0
03/02:30pm 30.1 29.3 20.1 55 6.6 E 24 35 13 19 1011.5 1011.4 0.0
03/02:00pm 30.4 29.3 20.3 54 6.7 E 26 37 14 20 1011.8 1011.7 0.0
03/01:30pm 30.7 29.9 20.0 52 7.1 E 24 32 13 17 1012.1 1012.0 0.0
03/01:00pm 30.5 29.9 19.8 52 7.0 E 22 32 12 17 1012.3 1012.2 0.0
03/12:30pm 30.3 30.5 20.5 55 6.5 E 20 28 11 15 1012.8 1012.7 0.0
03/12:00pm 30.7 30.9 20.6 54 6.7 E 20 30 11 16 1013.2 1013.1 0.0
03/11:30am 29.0 29.1 19.9 58 6.0 ESE 19 28 10 15 1013.6 1013.5 0.0
03/11:00am 28.6 29.4 19.8 59 5.7 SE 15 20 8 11 1014.0 1013.9 0.0
03/10:30am 28.2 28.9 19.7 60 5.5 SE 15 22 8 12 1014.4 1014.3 0.0
03/10:00am 29.2 29.5 20.4 59 5.8 SE 19 26 10 14 1014.5 1014.4 0.0
03/09:30am 28.6 28.8 20.1 60 5.6 SE 19 28 10 15 1014.4 1014.3 0.0
03/09:00am 27.8 27.8 20.1 63 5.0 SE 20 30 11 16 1014.3 1014.2 0.0
03/08:30am 27.0 26.6 20.1 66 4.5 SE 22 33 12 18 1014.1 1014.0 0.0
03/08:00am 26.8 27.5 20.4 68 4.2 SSE 17 24 9 13 1014.0 1013.9 0.0
03/07:30am 25.9 27.4 20.5 72 3.5 SSE 13 20 7 11 1013.7 1013.6 0.0
03/07:00am 24.4 27.1 20.3 78 2.7 SSW 6 11 3 6 1013.4 1013.3 0.0
03/06:30am 23.3 25.5 19.7 80 2.3 SW 7 9 4 5 1013.1 1013.0 0.0
03/06:00am 23.0 25.3 19.8 82 2.1 SSW 7 11 4 6 1012.9 1012.8 0.0
03/05:30am 22.5 24.7 19.3 82 2.0 SW 6 7 3 4 1012.8 1012.7 0.0
03/05:00am 22.9 25.0 19.3 80 2.3 SSW 7 9 4 5 1012.5 1012.4 0.0
03/04:30am 23.1 25.3 19.1 78 2.5 SW 6 7 3 4 1012.3 1012.2 0.0
03/04:00am 23.7 25.8 19.4 77 2.8 S 7 11 4 6 1012.2 1012.1 0.0
03/03:30am 23.9 25.9 19.2 75 3.0 SSE 7 11 4 6 1012.4 1012.3 0.0
03/03:00am 24.2 25.9 19.3 74 3.1 SSE 9 13 5 7 1012.2 1012.1 0.0
03/02:30am 24.6 25.6 19.4 73 3.3 SSE 13 20 7 11 1012.2 1012.1 0.0
03/02:00am 24.6 26.1 19.7 74 3.2 SSE 11 17 6 9 1012.5 1012.4 0.0
03/01:30am 24.5 26.4 19.8 75 3.0 SSE 9 17 5 9 1012.6 1012.5 0.0
03/01:00am 24.2 26.0 19.5 75 3.0 S 9 15 5 8 1012.6 1012.5 0.0
03/12:30am 24.8 26.6 19.6 73 3.3 SSE 9 13 5 7 1012.8 1012.7 0.0
03/12:00am 25.2 27.1 19.8 72 3.5 SSE 9 15 5 8 1013.1 1013.0 0.0
 
Date/Time
EST
Temp
°C
App
Temp
°C
Dew
Point
Rel
Hum
%
Delta-T
°C
Wind Press
QNH
hPa
Press
MSL
hPa
Rain
since 9 am
mm
Dir
 
Spd
km/h
Gust
km/h
Spd
kts
Gust
kts
02/11:30pm 25.7 27.2 19.8 70 3.8 SSE 11 20 6 11 1013.1 1013.0 0.0
02/11:00pm 26.2 26.6 19.8 68 4.2 SE 17 26 9 14 1013.1 1013.0 0.0
02/10:30pm 26.4 26.8 19.8 67 4.3 SE 17 28 9 15 1013.1 1013.0 0.0

Other Formats:

Comma delimited format used in spreadsheet applications
http://www.bom.gov.au/fwo/IDQ60801/IDQ60801.94381.axf

JavaScript Object Notation format (JSON) in row-major order
http://www.bom.gov.au/fwo/IDQ60801/IDQ60801.94381.json